Time;durP1;ratioP1;P1;durP2;ratioP2;P2;SDS_P1;SDS_P2;PMS_P1;PMS_P2;Temp;Humidity;BMP_temperature;BMP_pressure;BME280_temperature;BME280_humidity;BME280_pressure;Samples;Min_cycle;Max_cycle;Signal;HPM_P1;HPM_P2
2021/09/01 00:02:02;;;;;;;15.00;10.50;;;;;;;11.92;100.00;97383.44;4978179;28;20047;-63
2021/09/01 00:04:27;;;;;;;17.20;10.27;;;;;;;11.85;100.00;97391.50;4976299;28;20042;-64
2021/09/01 00:06:53;;;;;;;16.77;10.77;;;;;;;11.81;100.00;97396.09;4979475;28;20428;-65
2021/09/01 00:09:18;;;;;;;16.88;10.35;;;;;;;11.83;100.00;97394.59;4971834;28;20407;-62
2021/09/01 00:11:44;;;;;;;17.15;10.52;;;;;;;11.83;100.00;97391.84;4978399;28;20046;-65
2021/09/01 00:14:10;;;;;;;19.15;11.95;;;;;;;11.74;100.00;97394.00;4975869;28;20042;-64
2021/09/01 00:16:35;;;;;;;19.63;11.35;;;;;;;11.75;100.00;97394.78;4958927;28;20130;-64
2021/09/01 00:19:04;;;;;;;17.38;10.48;;;;;;;11.69;100.00;97388.78;4959905;28;20484;-65
2021/09/01 00:21:30;;;;;;;19.00;10.63;;;;;;;11.72;100.00;97398.22;4960431;28;20547;-65
2021/09/01 00:23:56;;;;;;;19.50;11.40;;;;;;;11.83;100.00;97389.09;4959438;28;20400;-65
2021/09/01 00:26:22;;;;;;;17.33;10.43;;;;;;;11.80;100.00;97400.78;4956460;28;20049;-66
2021/09/01 00:28:48;;;;;;;17.27;11.95;;;;;;;11.86;100.00;97382.88;4962627;28;20034;-66
2021/09/01 00:31:14;;;;;;;23.48;12.23;;;;;;;11.81;100.00;97393.34;4973875;28;20450;-64
2021/09/01 00:33:40;;;;;;;17.58;11.18;;;;;;;11.99;100.00;97391.84;4979816;28;20043;-66
2021/09/01 00:36:05;;;;;;;20.83;10.82;;;;;;;11.95;100.00;97387.41;4978926;28;20042;-66
2021/09/01 00:38:31;;;;;;;19.13;11.70;;;;;;;11.89;100.00;97386.88;4981462;28;20082;-65
2021/09/01 00:41:32;;;;;;;19.98;10.68;;;;;;;11.89;100.00;97395.09;4980560;28;20050;-66
2021/09/01 00:44:14;;;;;;;18.60;11.32;;;;;;;11.85;100.00;97396.97;4982375;28;20046;-66
2021/09/01 00:46:39;;;;;;;20.58;11.80;;;;;;;11.86;100.00;97404.03;4983870;28;20157;-65
2021/09/01 00:49:05;;;;;;;22.27;13.27;;;;;;;11.78;100.00;97402.31;4977628;28;20042;-65
2021/09/01 00:51:30;;;;;;;20.15;12.30;;;;;;;11.81;100.00;97404.31;4978367;28;20129;-65
2021/09/01 00:53:56;;;;;;;19.50;12.05;;;;;;;11.79;100.00;97401.97;4978473;28;20149;-65
2021/09/01 00:56:21;;;;;;;21.25;13.23;;;;;;;11.79;100.00;97395.66;4978208;28;20536;-65
2021/09/01 00:58:47;;;;;;;26.02;13.68;;;;;;;11.78;100.00;97386.63;4983267;28;20495;-64
2021/09/01 01:01:17;;;;;;;22.17;13.02;;;;;;;11.71;100.00;97391.94;4976657;28;20049;-63
2021/09/01 01:03:47;;;;;;;21.77;12.50;;;;;;;11.63;100.00;97392.94;4981590;28;20448;-65
2021/09/01 01:06:16;;;;;;;22.05;13.02;;;;;;;11.60;100.00;97401.91;4974880;28;20039;-65
2021/09/01 01:08:41;;;;;;;22.45;13.30;;;;;;;11.61;100.00;97404.28;4982406;28;20061;-63
2021/09/01 01:11:12;;;;;;;19.35;12.75;;;;;;;11.56;100.00;97403.75;4977354;28;20038;-65
2021/09/01 01:13:38;;;;;;;22.38;13.13;;;;;;;11.52;100.00;97406.41;4982427;28;20129;-65
2021/09/01 01:16:04;;;;;;;20.00;12.55;;;;;;;11.55;100.00;97408.44;4978785;28;20042;-61
2021/09/01 01:18:30;;;;;;;21.63;13.32;;;;;;;11.53;100.00;97409.94;4979918;28;20049;-65
2021/09/01 01:20:56;;;;;;;20.25;13.65;;;;;;;11.48;100.00;97409.06;4980806;28;20088;-64
2021/09/01 01:23:23;;;;;;;26.50;13.27;;;;;;;11.46;100.00;97400.38;4975739;28;20046;-65
2021/09/01 01:25:48;;;;;;;25.23;13.85;;;;;;;11.43;100.00;97408.53;4982488;28;20106;-65
2021/09/01 01:28:14;;;;;;;20.98;13.40;;;;;;;11.44;100.00;97407.38;4976291;28;20042;-63
2021/09/01 01:30:41;;;;;;;22.55;13.15;;;;;;;11.47;100.00;97401.19;4979369;28;20038;-65
2021/09/01 01:33:07;;;;;;;19.85;12.48;;;;;;;11.51;100.00;97402.06;4976582;28;20046;-65
2021/09/01 01:35:38;;;;;;;24.48;14.07;;;;;;;11.48;100.00;97409.06;4982290;28;20042;-63
2021/09/01 01:38:06;;;;;;;21.52;12.88;;;;;;;11.46;100.00;97397.63;4975222;28;20042;-60
2021/09/01 01:40:33;;;;;;;22.33;12.55;;;;;;;11.38;100.00;97406.88;4989745;28;20043;-64
2021/09/01 01:42:59;;;;;;;23.02;14.13;;;;;;;11.37;100.00;97407.22;4985445;28;20165;-65
2021/09/01 01:45:31;;;;;;;24.15;13.93;;;;;;;11.39;100.00;97404.91;4980665;28;20058;-63
2021/09/01 01:47:57;;;;;;;22.42;14.35;;;;;;;11.39;100.00;97407.66;4990715;28;20137;-65
2021/09/01 01:50:22;;;;;;;24.48;14.45;;;;;;;11.38;100.00;97408.78;4978362;28;20605;-63
2021/09/01 01:52:48;;;;;;;26.63;14.73;;;;;;;11.33;100.00;97418.09;4994574;28;20225;-64
2021/09/01 01:55:13;;;;;;;26.67;15.13;;;;;;;11.31;100.00;97412.19;4975932;28;20042;-64
2021/09/01 01:57:39;;;;;;;27.20;14.63;;;;;;;11.25;100.00;97416.31;4991330;28;20049;-63
2021/09/01 02:00:06;;;;;;;25.98;15.20;;;;;;;11.25;100.00;97419.06;4984995;28;20043;-60
2021/09/01 02:02:32;;;;;;;25.20;14.73;;;;;;;11.31;100.00;97420.41;4984731;28;20415;-64
2021/09/01 02:04:59;;;;;;;26.42;14.85;;;;;;;11.30;100.00;97410.56;4997200;28;20037;-64
2021/09/01 02:07:25;;;;;;;28.20;15.80;;;;;;;11.27;100.00;97411.28;4990547;28;20076;-64
2021/09/01 02:09:50;;;;;;;27.38;16.02;;;;;;;11.33;100.00;97412.63;4982210;28;20125;-66
2021/09/01 02:12:16;;;;;;;27.55;14.90;;;;;;;11.33;100.00;97411.81;4976935;28;20277;-65
2021/09/01 02:14:41;;;;;;;27.38;14.35;;;;;;;11.35;100.00;97415.78;4986535;28;20111;-65
2021/09/01 02:17:07;;;;;;;24.35;13.35;;;;;;;11.39;100.00;97410.41;4987030;28;20546;-64
2021/09/01 02:19:32;;;;;;;26.35;13.57;;;;;;;11.51;100.00;97424.03;4988361;28;20157;-66
2021/09/01 02:21:57;;;;;;;21.80;13.45;;;;;;;11.58;100.00;97415.19;4989575;28;20052;-65
2021/09/01 02:24:23;;;;;;;23.67;14.40;;;;;;;11.60;100.00;97408.16;4971822;28;20669;-65
2021/09/01 02:26:48;;;;;;;26.10;14.23;;;;;;;11.55;100.00;97396.69;4992893;28;20056;-61
2021/09/01 02:29:14;;;;;;;21.10;13.65;;;;;;;11.51;100.00;97406.78;4974294;28;20046;-65
2021/09/01 02:31:39;;;;;;;23.60;13.10;;;;;;;11.45;100.00;97406.22;4993121;28;20088;-65
2021/09/01 02:34:05;;;;;;;25.75;14.30;;;;;;;11.52;100.00;97400.13;4987375;28;20664;-64
2021/09/01 02:36:30;;;;;;;21.73;12.68;;;;;;;11.46;100.00;97397.63;4989965;28;20042;-64
2021/09/01 02:38:55;;;;;;;21.67;13.35;;;;;;;11.45;100.00;97398.00;4981480;28;20133;-63
2021/09/01 02:41:23;;;;;;;25.15;14.38;;;;;;;11.40;100.00;97396.34;4982985;28;22117;-64
2021/09/01 02:43:49;;;;;;;23.20;14.20;;;;;;;11.39;100.00;97400.22;4988285;28;20057;-65
2021/09/01 02:46:15;;;;;;;20.77;12.15;;;;;;;11.36;100.00;97392.72;4990794;28;20049;-64
2021/09/01 02:48:41;;;;;;;26.13;14.13;;;;;;;11.37;100.00;97397.03;5000365;28;20046;-63
2021/09/01 02:51:06;;;;;;;23.05;13.98;;;;;;;11.40;100.00;97396.34;4980584;28;20046;-64
2021/09/01 02:53:32;;;;;;;25.40;14.07;;;;;;;11.42;100.00;97388.53;4960944;28;20061;-64
2021/09/01 02:55:57;;;;;;;27.33;14.70;;;;;;;11.43;100.00;97384.66;4987439;28;20495;-64
2021/09/01 02:58:22;;;;;;;30.88;14.75;;;;;;;11.39;100.00;97382.97;4981627;28;20046;-64
2021/09/01 03:00:48;;;;;;;22.95;14.15;;;;;;;11.36;100.00;97387.22;4984839;28;20577;-65
2021/09/01 03:03:13;;;;;;;23.70;14.55;;;;;;;11.50;100.00;97389.50;4984566;28;20046;-63
2021/09/01 03:05:39;;;;;;;24.23;14.23;;;;;;;11.47;100.00;97391.00;4987605;28;20038;-63
2021/09/01 03:08:06;;;;;;;23.40;13.23;;;;;;;11.53;100.00;97397.03;4983793;28;20041;-59
2021/09/01 03:10:31;;;;;;;26.77;14.35;;;;;;;11.45;100.00;97392.50;4983609;28;20187;-64
2021/09/01 03:12:57;;;;;;;26.15;14.13;;;;;;;11.36;100.00;97389.16;4986788;28;20494;-61
2021/09/01 03:15:22;;;;;;;22.77;13.10;;;;;;;11.44;100.00;97391.72;4982464;28;20058;-64
2021/09/01 03:17:48;;;;;;;25.70;13.95;;;;;;;11.45;100.00;97392.50;4993784;28;20490;-64
2021/09/01 03:20:14;;;;;;;24.08;13.55;;;;;;;11.44;100.00;97388.19;4986064;28;20050;-64
2021/09/01 03:22:39;;;;;;;26.30;13.82;;;;;;;11.44;100.00;97399.94;4976252;28;20398;-64
2021/09/01 03:25:05;;;;;;;25.67;14.98;;;;;;;11.42;100.00;97405.00;4985986;28;20038;-64
2021/09/01 03:27:31;;;;;;;22.73;14.05;;;;;;;11.45;100.00;97398.00;4976699;28;20050;-63
2021/09/01 03:29:56;;;;;;;21.98;12.90;;;;;;;11.49;100.00;97398.91;4985570;28;20042;-64
2021/09/01 03:32:22;;;;;;;21.55;12.80;;;;;;;11.44;100.00;97404.66;4981637;28;20061;-64
2021/09/01 03:34:48;;;;;;;25.58;13.35;;;;;;;11.47;100.00;97402.00;4969551;28;20120;-64
2021/09/01 03:37:13;;;;;;;25.02;13.80;;;;;;;11.51;100.00;97402.06;4982702;28;20046;-61
2021/09/01 03:39:39;;;;;;;23.25;13.82;;;;;;;11.38;100.00;97404.13;4988566;28;20045;-64
2021/09/01 03:42:04;;;;;;;23.05;14.13;;;;;;;11.35;100.00;97401.28;4978440;28;20046;-61
2021/09/01 03:44:30;;;;;;;26.67;13.55;;;;;;;11.31;100.00;97397.66;4987565;28;20050;-64
2021/09/01 03:46:55;;;;;;;23.35;14.43;;;;;;;11.25;100.00;97391.63;4990905;28;20048;-63
2021/09/01 03:49:21;;;;;;;23.20;13.43;;;;;;;11.18;100.00;97396.94;4986401;28;20053;-62
2021/09/01 03:51:47;;;;;;;28.38;14.93;;;;;;;11.15;100.00;97395.72;4996064;28;20038;-65
2021/09/01 03:54:13;;;;;;;30.88;14.93;;;;;;;11.09;100.00;97397.09;4981743;28;20054;-64
2021/09/01 03:56:38;;;;;;;28.33;16.05;;;;;;;11.05;100.00;97396.22;4991417;28;20049;-64
2021/09/01 03:59:05;;;;;;;28.30;14.85;;;;;;;11.00;100.00;97393.75;4979914;28;20459;-61
2021/09/01 04:01:35;;;;;;;26.48;14.65;;;;;;;11.01;100.00;97396.13;4971434;28;20045;-64
2021/09/01 04:04:05;;;;;;;29.88;16.45;;;;;;;10.98;100.00;97390.56;4986226;28;20097;-64
2021/09/01 04:06:30;;;;;;;30.48;17.05;;;;;;;11.01;100.00;97396.13;4984628;28;20050;-65
2021/09/01 04:08:56;;;;;;;29.38;16.65;;;;;;;10.99;100.00;97392.97;4987807;28;20138;-64
2021/09/01 04:11:22;;;;;;;28.27;16.50;;;;;;;11.01;100.00;97385.19;4986625;28;21125;-63
2021/09/01 04:13:47;;;;;;;29.25;16.20;;;;;;;11.00;100.00;97396.50;4987296;28;20085;-65
2021/09/01 04:16:13;;;;;;;29.10;16.48;;;;;;;11.05;100.00;97393.50;4982834;28;20038;-64
2021/09/01 04:18:38;;;;;;;27.85;16.60;;;;;;;11.03;100.00;97398.53;4992313;28;20043;-65
2021/09/01 04:21:04;;;;;;;31.52;16.85;;;;;;;11.12;100.00;97399.16;4987103;28;20050;-60
2021/09/01 04:23:29;;;;;;;31.55;16.05;;;;;;;11.06;100.00;97400.56;4988347;28;20437;-64
2021/09/01 04:25:55;;;;;;;28.88;16.10;;;;;;;10.98;100.00;97402.31;4991164;28;20063;-64
2021/09/01 04:28:20;;;;;;;34.13;16.45;;;;;;;10.95;100.00;97402.22;4984816;28;20411;-61
2021/09/01 04:30:46;;;;;;;28.95;15.85;;;;;;;10.91;100.00;97402.13;4974990;28;20054;-65
2021/09/01 04:33:12;;;;;;;30.95;15.20;;;;;;;10.93;100.00;97410.81;4986668;28;20039;-65
2021/09/01 04:35:37;;;;;;;23.60;14.52;;;;;;;10.90;100.00;97419.75;5003213;28;20070;-64
2021/09/01 04:38:03;;;;;;;29.17;15.70;;;;;;;10.96;100.00;97409.31;4997949;28;20580;-60
2021/09/01 04:40:28;;;;;;;30.02;15.57;;;;;;;10.94;100.00;97404.19;4987393;28;20049;-65
2021/09/01 04:42:54;;;;;;;25.25;14.23;;;;;;;11.00;100.00;97407.44;4982416;28;20400;-65
2021/09/01 04:45:19;;;;;;;23.02;13.90;;;;;;;11.01;100.00;97403.56;4986923;28;20042;-61
2021/09/01 04:47:44;;;;;;;25.95;13.90;;;;;;;10.98;100.00;97407.00;4988135;28;20042;-66
2021/09/01 04:50:10;;;;;;;25.75;14.18;;;;;;;10.95;100.00;97394.00;4984047;28;20046;-63
2021/09/01 04:52:36;;;;;;;23.42;13.13;;;;;;;10.92;100.00;97401.00;4991740;28;20052;-64
2021/09/01 04:55:02;;;;;;;24.05;13.00;;;;;;;10.96;100.00;97404.63;4991373;28;20064;-65
2021/09/01 04:57:28;;;;;;;24.88;13.18;;;;;;;11.00;100.00;97404.72;4977975;28;20047;-64
2021/09/01 04:59:53;;;;;;;27.65;14.18;;;;;;;11.05;100.00;97401.72;4987584;28;20546;-63
2021/09/01 05:02:18;;;;;;;19.00;11.63;;;;;;;11.08;100.00;97407.28;4984144;28;20798;-65
2021/09/01 05:04:44;;;;;;;22.48;12.77;;;;;;;11.06;100.00;97408.81;4993293;28;20038;-63
2021/09/01 05:07:09;;;;;;;23.10;12.68;;;;;;;11.09;100.00;97419.84;4987190;28;20038;-66
2021/09/01 05:09:35;;;;;;;19.48;12.10;;;;;;;11.26;100.00;97415.97;4989289;28;20038;-65
2021/09/01 05:12:00;;;;;;;22.75;11.60;;;;;;;11.38;100.00;97420.59;4988323;28;20045;-63
2021/09/01 05:14:26;;;;;;;16.52;11.07;;;;;;;11.51;100.00;97418.53;4983813;28;20065;-65
2021/09/01 05:16:52;;;;;;;17.55;10.13;;;;;;;11.62;100.00;97416.06;4994104;28;20045;-65
2021/09/01 05:19:17;;;;;;;19.60;11.13;;;;;;;11.74;100.00;97406.91;4987147;28;20056;-65
2021/09/01 05:21:50;;;;;;;14.95;9.55;;;;;;;12.26;100.00;97408.47;4989566;28;20042;-64
2021/09/01 05:24:27;;;;;;;13.98;9.00;;;;;;;12.87;100.00;97414.38;4994658;28;20042;-65
2021/09/01 05:26:59;;;;;;;12.63;8.05;;;;;;;13.09;97.26;97401.81;4992333;28;20534;-65
2021/09/01 05:29:28;;;;;;;14.30;8.55;;;;;;;13.53;95.87;97409.66;4977052;28;20820;-63
2021/09/01 05:31:56;;;;;;;13.63;7.13;;;;;;;13.42;94.49;97414.22;4993270;28;20049;-65
2021/09/01 05:34:22;;;;;;;16.05;8.10;;;;;;;13.42;94.06;97420.50;4981082;28;20066;-65
2021/09/01 05:36:49;;;;;;;12.75;7.55;;;;;;;13.52;93.16;97419.06;4988705;28;20105;-65
2021/09/01 05:39:15;;;;;;;12.27;7.30;;;;;;;13.98;91.36;97423.72;4985163;28;20096;-64
2021/09/01 05:41:41;;;;;;;13.18;7.78;;;;;;;13.97;90.90;97428.41;4979661;28;20514;-65
2021/09/01 05:44:07;;;;;;;11.60;6.90;;;;;;;14.06;90.44;97428.16;4981535;28;20050;-61
2021/09/01 05:46:32;;;;;;;12.70;7.50;;;;;;;13.95;91.03;97425.25;4993693;28;20061;-65
2021/09/01 05:48:58;;;;;;;10.98;6.90;;;;;;;13.81;91.72;97423.09;4996564;28;20041;-64
2021/09/01 05:51:24;;;;;;;10.57;6.50;;;;;;;14.24;90.28;97429.22;4989124;28;20142;-64
2021/09/01 05:53:50;;;;;;;10.55;6.60;;;;;;;14.87;86.21;97430.41;4994370;28;20046;-64
2021/09/01 05:56:21;;;;;;;12.57;7.80;;;;;;;14.42;87.33;97423.13;4958332;28;20057;-64
2021/09/01 05:58:52;;;;;;;11.82;6.80;;;;;;;14.68;86.72;97425.06;4988916;28;20414;-65
2021/09/01 06:01:26;;;;;;;9.52;6.00;;;;;;;15.12;83.80;97424.34;4986026;28;20034;-65
2021/09/01 06:03:56;;;;;;;9.43;6.88;;;;;;;14.17;88.42;97422.78;4984055;28;20503;-64
2021/09/01 06:06:22;;;;;;;11.40;6.97;;;;;;;14.35;88.33;97421.09;4976570;28;23347;-65
2021/09/01 06:08:48;;;;;;;11.50;7.05;;;;;;;14.39;88.86;97418.38;4981180;28;20042;-64
2021/09/01 06:11:22;;;;;;;12.20;6.97;;;;;;;14.78;86.73;97423.59;4987815;28;20042;-63
2021/09/01 06:13:47;;;;;;;11.85;7.65;;;;;;;15.00;84.49;97427.38;4987446;28;20054;-64
2021/09/01 06:16:13;;;;;;;10.75;6.93;;;;;;;15.40;83.44;97434.09;4984604;28;20105;-66
2021/09/01 06:18:38;;;;;;;13.75;7.43;;;;;;;14.83;85.41;97428.78;4983540;28;20069;-64
2021/09/01 06:21:04;;;;;;;12.00;7.53;;;;;;;14.93;85.65;97430.84;4986734;28;20076;-61
2021/09/01 06:23:29;;;;;;;11.57;7.22;;;;;;;14.94;85.37;97426.91;4980760;28;20080;-66
2021/09/01 06:25:55;;;;;;;11.35;7.47;;;;;;;15.05;84.55;97416.81;4987852;28;20049;-65
2021/09/01 06:28:20;;;;;;;10.13;6.88;;;;;;;15.19;84.20;97429.16;4979339;28;20042;-62
2021/09/01 06:30:46;;;;;;;11.00;6.72;;;;;;;15.18;83.61;97420.09;4986065;28;20053;-63
2021/09/01 06:33:11;;;;;;;11.23;6.75;;;;;;;15.08;85.24;97429.03;4982529;28;20121;-66
2021/09/01 06:35:37;;;;;;;9.73;6.45;;;;;;;15.70;81.79;97427.59;4982627;28;20077;-64
2021/09/01 06:38:03;;;;;;;10.52;6.55;;;;;;;15.78;80.76;97421.00;4985908;28;20046;-62
2021/09/01 06:40:28;;;;;;;13.82;7.45;;;;;;;15.21;83.68;97429.56;4985674;28;20125;-63
2021/09/01 06:42:54;;;;;;;10.52;6.97;;;;;;;14.99;84.94;97425.78;4987501;28;20078;-66
2021/09/01 06:45:19;;;;;;;10.38;6.53;;;;;;;15.16;84.49;97432.66;4980692;28;20141;-65
2021/09/01 06:47:47;;;;;;;10.38;7.15;;;;;;;15.23;84.02;97428.03;4986917;28;20069;-67
2021/09/01 06:50:19;;;;;;;10.25;6.78;;;;;;;15.19;83.82;97429.94;4987134;28;20121;-64
2021/09/01 06:52:46;;;;;;;10.02;6.45;;;;;;;15.23;85.58;97438.25;4991012;28;20057;-66
2021/09/01 06:55:13;;;;;;;13.70;7.75;;;;;;;15.74;83.96;97448.59;4988033;28;20065;-66
2021/09/01 06:57:39;;;;;;;10.50;6.28;;;;;;;16.25;81.24;97444.97;4992498;28;20045;-62
2021/09/01 07:00:06;;;;;;;10.80;6.70;;;;;;;15.47;83.19;97453.47;4975249;28;20042;-59
2021/09/01 07:02:32;;;;;;;9.95;6.63;;;;;;;16.30;79.09;97452.13;4989035;28;20097;-68
2021/09/01 07:04:59;;;;;;;14.32;7.68;;;;;;;15.65;81.17;97459.94;4980733;28;20046;-64
2021/09/01 07:07:24;;;;;;;13.38;7.28;;;;;;;15.70;80.24;97461.56;4970778;28;20534;-65
2021/09/01 07:09:49;;;;;;;13.25;6.95;;;;;;;16.02;79.60;97456.28;4980783;28;20383;-64
2021/09/01 07:12:15;;;;;;;9.38;6.45;;;;;;;15.63;81.63;97453.22;4976202;28;20042;-65
2021/09/01 07:14:40;;;;;;;12.18;6.80;;;;;;;15.52;81.04;97457.84;4980686;28;20053;-64
2021/09/01 07:17:06;;;;;;;11.13;6.88;;;;;;;15.43;82.36;97464.47;4975490;28;20583;-62
2021/09/01 07:19:31;;;;;;;11.35;7.32;;;;;;;15.29;82.73;97462.38;4980042;28;20039;-63
2021/09/01 07:21:56;;;;;;;10.85;6.80;;;;;;;15.76;82.57;97468.34;4979228;28;20057;-65
2021/09/01 07:24:22;;;;;;;10.75;7.15;;;;;;;15.69;82.66;97462.72;4974668;28;20867;-63
2021/09/01 07:26:47;;;;;;;11.48;7.15;;;;;;;16.19;80.76;97459.56;4979610;28;20428;-65
2021/09/01 07:29:13;;;;;;;9.82;6.50;;;;;;;16.04;81.01;97473.28;4975498;28;20121;-67
2021/09/01 07:31:38;;;;;;;8.75;6.15;;;;;;;16.46;78.57;97464.84;4980247;28;20038;-66
2021/09/01 07:34:04;;;;;;;8.82;6.03;;;;;;;16.14;80.16;97460.72;4959739;28;20081;-66
2021/09/01 07:36:29;;;;;;;9.32;6.15;;;;;;;16.20;80.26;97461.16;4977343;28;20489;-67
2021/09/01 07:38:54;;;;;;;8.18;5.80;;;;;;;16.11;80.44;97457.94;4978750;28;20045;-66
2021/09/01 07:41:20;;;;;;;9.82;6.15;;;;;;;16.82;77.26;97463.84;4975077;28;20138;-66
2021/09/01 07:43:45;;;;;;;9.07;6.20;;;;;;;16.45;79.16;97461.28;4980037;28;20038;-66
2021/09/01 07:46:10;;;;;;;9.95;5.38;;;;;;;17.36;74.84;97466.78;4972551;28;20125;-65
2021/09/01 07:48:36;;;;;;;8.43;5.80;;;;;;;17.59;73.73;97462.84;4978756;28;20050;-65
2021/09/01 07:51:02;;;;;;;12.00;5.47;;;;;;;17.86;72.22;97465.25;4980084;28;20406;-66
2021/09/01 07:53:28;;;;;;;8.23;5.18;;;;;;;17.16;74.41;97465.53;4977134;28;20046;-66
2021/09/01 07:55:53;;;;;;;8.98;5.50;;;;;;;16.87;75.14;97459.94;4978348;28;20034;-65
2021/09/01 07:58:19;;;;;;;8.05;5.38;;;;;;;16.83;76.02;97461.88;4975275;28;20038;-65
2021/09/01 08:00:44;;;;;;;7.80;5.20;;;;;;;17.97;71.91;97474.38;4977974;28;20042;-65
2021/09/01 08:03:10;;;;;;;8.68;5.03;;;;;;;17.80;73.79;97469.59;4971281;28;20030;-66
2021/09/01 08:05:36;;;;;;;8.35;5.15;;;;;;;17.39;72.66;97462.44;4979369;28;20047;-65
2021/09/01 08:08:02;;;;;;;8.23;5.63;;;;;;;16.87;75.04;97472.97;4980139;28;20046;-64
2021/09/01 08:10:27;;;;;;;10.15;5.05;;;;;;;16.68;75.46;97477.59;4942679;28;20049;-66
2021/09/01 08:12:53;;;;;;;8.43;5.53;;;;;;;16.91;76.18;97485.66;4978278;28;20042;-66
2021/09/01 08:15:18;;;;;;;7.22;5.00;;;;;;;17.56;72.48;97486.59;4972211;28;20050;-66
2021/09/01 08:17:44;;;;;;;8.18;4.80;;;;;;;18.02;71.80;97481.50;4979410;28;20074;-66
2021/09/01 08:20:10;;;;;;;6.53;4.38;;;;;;;18.35;69.67;97477.50;4974457;28;20046;-65
2021/09/01 08:22:36;;;;;;;6.85;4.60;;;;;;;17.91;68.64;97473.97;4980144;28;20081;-65
2021/09/01 08:25:01;;;;;;;7.07;4.20;;;;;;;17.96;67.37;97473.56;4978303;28;20035;-66
2021/09/01 08:27:27;;;;;;;6.85;4.18;;;;;;;17.80;70.61;97467.59;4974333;28;20046;-67
2021/09/01 08:29:52;;;;;;;9.77;4.22;;;;;;;18.40;68.76;97470.72;4980258;28;20049;-66
2021/09/01 08:32:18;;;;;;;5.53;3.70;;;;;;;18.10;67.94;97461.69;4975426;28;20394;-65
2021/09/01 08:34:45;;;;;;;5.95;3.25;;;;;;;17.95;66.06;97463.69;4978935;28;20078;-66
2021/09/01 08:37:11;;;;;;;7.65;3.63;;;;;;;18.06;68.24;97473.94;4975273;28;20081;-65
2021/09/01 08:39:36;;;;;;;7.10;4.07;;;;;;;17.99;67.30;97458.16;4980035;28;20144;-64
2021/09/01 08:42:02;;;;;;;10.60;5.22;;;;;;;18.69;67.58;97468.66;4978127;28;20038;-65
2021/09/01 08:44:28;;;;;;;7.80;3.92;;;;;;;18.32;66.23;97467.97;4975716;28;20046;-67
2021/09/01 08:46:57;;;;;;;7.55;3.70;;;;;;;18.14;66.11;97468.00;4979696;28;20407;-66
2021/09/01 08:49:25;;;;;;;5.60;3.65;;;;;;;18.55;66.82;97469.53;4973985;28;20161;-66
2021/09/01 08:51:50;;;;;;;7.15;3.58;;;;;;;18.66;63.49;97464.72;4982738;28;20049;-66
2021/09/01 08:54:16;;;;;;;4.82;3.40;;;;;;;18.13;65.14;97472.00;4975587;28;20046;-66
2021/09/01 08:56:43;;;;;;;5.72;3.45;;;;;;;18.85;62.81;97462.69;4983713;28;20085;-66
2021/09/01 08:59:08;;;;;;;6.75;4.32;;;;;;;19.21;61.23;97470.84;4977532;28;20134;-66
2021/09/01 09:01:38;;;;;;;6.18;3.38;;;;;;;18.16;63.78;97470.38;4965781;28;20149;-66
2021/09/01 09:04:04;;;;;;;;;;;;;;;18.32;66.25;97470.75;4983157;28;20046;-63
2021/09/01 09:06:55;;;;;;;7.05;3.58;;;;;;;18.47;65.25;97465.94;4964463;28;19948;-65
2021/09/01 09:09:23;;;;;;;5.68;3.60;;;;;;;19.04;62.05;97470.53;4979098;28;20050;-65
2021/09/01 09:11:50;;;;;;;5.60;3.30;;;;;;;18.56;64.27;97465.53;4983405;28;20053;-66
2021/09/01 09:14:20;;;;;;;4.78;3.03;;;;;;;17.83;65.03;97466.81;4971169;28;20046;-64
2021/09/01 09:16:45;;;;;;;5.95;3.30;;;;;;;18.53;63.22;97460.81;4982660;28;20057;-64
2021/09/01 09:19:13;;;;;;;6.88;3.50;;;;;;;18.87;63.52;97458.34;4974424;28;20048;-65
2021/09/01 09:21:38;;;;;;;6.22;3.80;;;;;;;18.95;61.42;97464.63;4966457;28;20048;-66
2021/09/01 09:24:18;;;;;;;5.55;3.40;;;;;;;19.53;62.26;97458.75;4944877;28;20039;-63
2021/09/01 09:26:43;;;;;;;5.38;3.10;;;;;;;20.26;59.26;97460.56;4983099;28;20078;-65
2021/09/01 09:29:12;;;;;;;5.00;2.88;;;;;;;20.83;58.87;97455.56;4976190;28;20096;-66
2021/09/01 09:31:38;;;;;;;5.68;3.38;;;;;;;20.37;56.33;97455.66;4981766;28;20137;-65
2021/09/01 09:34:05;;;;;;;5.40;3.30;;;;;;;19.91;55.61;97456.09;4977906;28;20089;-63
2021/09/01 09:36:31;;;;;;;5.03;3.13;;;;;;;19.53;59.20;97450.41;4981397;28;20042;-66
2021/09/01 09:38:56;;;;;;;4.65;2.60;;;;;;;19.44;56.12;97448.09;4982936;28;20518;-65
2021/09/01 09:41:24;;;;;;;6.70;3.03;;;;;;;19.07;56.17;97458.63;4977246;28;20113;-64
2021/09/01 09:43:53;;;;;;;4.63;2.90;;;;;;;19.10;56.79;97446.72;4964815;28;20137;-64
2021/09/01 09:46:19;;;;;;;4.93;2.80;;;;;;;19.34;55.29;97457.28;4976330;28;20129;-66
2021/09/01 09:48:46;;;;;;;7.18;3.30;;;;;;;19.72;55.05;97449.88;4981767;28;20042;-66
2021/09/01 09:51:17;;;;;;;5.50;3.03;;;;;;;19.45;54.03;97452.47;4977390;28;20047;-64
2021/09/01 09:53:46;;;;;;;5.90;2.63;;;;;;;19.61;52.40;97447.19;4980905;28;20148;-65
2021/09/01 09:56:16;;;;;;;6.95;3.00;;;;;;;19.48;53.53;97449.66;4976549;28;20145;-65
2021/09/01 09:58:51;;;;;;;7.03;3.50;;;;;;;20.07;54.08;97447.22;4975674;28;20042;-65
2021/09/01 10:01:18;;;;;;;5.60;2.90;;;;;;;19.99;51.82;97446.50;4976024;28;20124;-65
2021/09/01 10:03:43;;;;;;;4.90;2.63;;;;;;;20.31;51.49;97454.53;4982554;28;20066;-64
2021/09/01 10:06:14;;;;;;;5.35;2.72;;;;;;;19.91;51.00;97450.53;4975786;28;20070;-63
2021/09/01 10:08:40;;;;;;;4.88;2.33;;;;;;;20.48;50.69;97443.63;4981188;28;20212;-64
2021/09/01 10:11:12;;;;;;;4.30;2.50;;;;;;;20.72;52.24;97441.78;4975393;28;20097;-65
2021/09/01 10:13:40;;;;;;;5.30;2.25;;;;;;;20.03;47.72;97444.47;4979915;28;20080;-64
2021/09/01 10:16:20;;;;;;;4.47;2.40;;;;;;;20.11;47.88;97442.41;4976510;28;20384;-66
2021/09/01 10:18:52;;;;;;;6.05;2.50;;;;;;;20.41;49.42;97445.28;4981642;28;20322;-65
2021/09/01 10:21:23;;;;;;;3.60;2.20;;;;;;;20.43;48.02;97439.28;4976392;28;20073;-66
2021/09/01 10:23:48;;;;;;;4.20;2.40;;;;;;;20.70;48.14;97433.84;4980402;28;20530;-66
2021/09/01 10:26:32;;;;;;;6.43;3.35;;;;;;;20.53;47.59;97427.25;4976980;28;20046;-66
2021/09/01 10:29:00;;;;;;;4.70;2.50;;;;;;;21.07;47.38;97442.53;4982087;28;20499;-66
2021/09/01 10:31:25;;;;;;;7.95;2.80;;;;;;;20.60;50.18;97441.09;4975341;28;20043;-65
2021/09/01 10:34:00;;;;;;;10.40;3.00;;;;;;;20.68;49.81;97443.81;4979187;28;20046;-65
2021/09/01 10:36:28;;;;;;;3.42;2.30;;;;;;;20.31;49.72;97431.47;4975707;28;20277;-65
2021/09/01 10:39:15;;;;;;;3.65;2.63;;;;;;;20.38;48.46;97426.66;4980593;28;20788;-65
2021/09/01 10:41:41;;;;;;;6.05;2.30;;;;;;;20.09;50.40;97431.69;4979057;28;20046;-66
2021/09/01 10:44:13;;;;;;;4.22;2.60;;;;;;;20.50;48.05;97422.53;4972932;28;20069;-66
2021/09/01 10:46:50;;;;;;;5.97;2.63;;;;;;;20.28;50.73;97429.53;4962651;28;20049;-65
2021/09/01 10:49:28;;;;;;;4.15;2.60;;;;;;;19.98;49.92;97433.78;4975455;28;20041;-65
2021/09/01 10:51:56;;;;;;;4.80;2.80;;;;;;;19.99;50.58;97436.16;4981476;28;20038;-65
2021/09/01 10:54:32;;;;;;;4.03;2.40;;;;;;;20.23;51.01;97430.78;4974368;28;20439;-65
2021/09/01 10:57:00;;;;;;;8.75;2.63;;;;;;;20.29;50.77;97433.88;4981069;28;20472;-67
2021/09/01 10:59:30;;;;;;;4.63;2.63;;;;;;;20.27;49.07;97431.50;4972043;28;20450;-67
2021/09/01 11:02:10;;;;;;;5.25;2.75;;;;;;;20.71;49.07;97429.88;4981538;28;20072;-66
2021/09/01 11:04:45;;;;;;;5.60;2.45;;;;;;;20.50;49.88;97430.09;4980392;28;20459;-66
2021/09/01 11:07:10;;;;;;;5.15;3.00;;;;;;;20.18;48.20;97418.09;4982995;28;20046;-66
2021/09/01 11:09:36;;;;;;;6.47;3.97;;;;;;;20.28;49.57;97423.97;5000102;28;20045;-65
2021/09/01 11:12:02;;;;;;;4.78;2.97;;;;;;;20.37;48.15;97427.06;4991498;28;20072;-66
2021/09/01 11:14:39;;;;;;;4.63;2.90;;;;;;;19.78;48.84;97433.56;4976787;28;20053;-66
2021/09/01 11:17:10;;;;;;;6.45;2.63;;;;;;;20.41;50.40;97425.00;4975600;28;20101;-62
2021/09/01 11:19:37;;;;;;;5.05;2.28;;;;;;;20.20;48.04;97426.03;4985624;28;20046;-65
2021/09/01 11:22:14;;;;;;;4.80;2.65;;;;;;;20.38;49.94;97425.84;4998729;28;20109;-65